createdAt,value
2018-07-31T05:47:17.113Z,24.2
2018-07-31T05:47:37.263Z,24.1
2018-07-31T05:47:57.402Z,24.1
2018-07-31T05:48:17.530Z,24.2
2018-07-31T05:48:37.692Z,24.2
2018-07-31T05:48:57.856Z,24.2
2018-07-31T05:49:18.007Z,24.2
2018-07-31T05:49:38.197Z,24.3
2018-07-31T05:49:58.338Z,24.3
2018-07-31T05:50:18.500Z,24.2
2018-07-31T05:50:38.679Z,24.2
2018-07-31T05:50:58.823Z,24.3
2018-07-31T05:51:18.968Z,24.3
2018-07-31T05:51:39.093Z,24.3
2018-07-31T05:51:59.489Z,24.3
2018-07-31T05:52:19.617Z,24.3
2018-07-31T05:52:39.768Z,24.3
2018-07-31T05:52:59.920Z,24.4
2018-07-31T05:53:20.035Z,24.4
2018-07-31T05:53:40.217Z,24.4
2018-07-31T05:54:00.382Z,24.5
2018-07-31T05:54:20.533Z,24.4
2018-07-31T05:54:40.665Z,24.4
2018-07-31T05:55:00.822Z,24.4
2018-07-31T05:55:21.002Z,24.4
2018-07-31T05:55:41.161Z,24.4
2018-07-31T05:56:01.313Z,24.5
2018-07-31T05:56:21.435Z,24.5
2018-07-31T05:56:41.592Z,24.5
2018-07-31T05:57:01.740Z,24.5
2018-07-31T05:57:21.926Z,24.6
2018-07-31T05:57:42.027Z,24.5
2018-07-31T05:58:02.169Z,24.6
2018-07-31T05:58:22.328Z,24.5
2018-07-31T05:58:42.503Z,24.6
2018-07-31T05:59:02.705Z,24.6
2018-07-31T05:59:22.864Z,24.7
2018-07-31T05:59:43.001Z,24.6
2018-07-31T06:00:03.158Z,24.7
2018-07-31T06:00:23.334Z,24.7
2018-07-31T06:00:43.460Z,24.7
2018-07-31T06:01:03.590Z,24.7
2018-07-31T06:01:23.753Z,24.8
2018-07-31T06:01:43.948Z,24.8
2018-07-31T06:02:04.097Z,24.7
2018-07-31T06:02:24.190Z,24.8
2018-07-31T06:02:44.350Z,24.8
2018-07-31T06:03:04.505Z,24.8
2018-07-31T06:03:24.689Z,24.8
2018-07-31T06:03:44.818Z,24.9
2018-07-31T06:04:04.969Z,24.8
2018-07-31T06:04:25.148Z,24.8
2018-07-31T06:04:45.280Z,24.8
2018-07-31T06:05:05.429Z,24.8
2018-07-31T06:05:25.601Z,24.8
2018-07-31T06:05:45.757Z,24.8
2018-07-31T06:06:05.874Z,24.9
2018-07-31T06:06:26.044Z,24.9
2018-07-31T06:06:46.183Z,24.9
2018-07-31T06:07:06.354Z,25
2018-07-31T06:07:26.482Z,24.9
2018-07-31T06:07:46.628Z,24.9
2018-07-31T06:08:06.830Z,24.9
2018-07-31T06:08:26.959Z,25
2018-07-31T06:08:47.090Z,25
2018-07-31T06:09:07.245Z,25.1
2018-07-31T06:09:27.414Z,25.1
2018-07-31T06:09:47.552Z,25
2018-07-31T06:10:07.736Z,25
2018-07-31T06:10:27.881Z,25.1
2018-07-31T06:10:48.019Z,25.1
2018-07-31T06:11:08.172Z,25.1
2018-07-31T06:11:28.495Z,25.2
2018-07-31T06:11:48.644Z,25.1
2018-07-31T06:12:08.813Z,25.2
2018-07-31T06:12:28.951Z,25.2
2018-07-31T06:12:49.094Z,25.2
2018-07-31T06:13:09.272Z,25.2
2018-07-31T06:13:29.437Z,25.3
2018-07-31T06:13:49.593Z,25.3
2018-07-31T06:14:09.710Z,25.4
2018-07-31T06:14:29.872Z,25.4
2018-07-31T06:14:50.010Z,25.3
2018-07-31T06:15:10.208Z,25.3
2018-07-31T06:15:30.362Z,25.4
2018-07-31T06:15:50.522Z,25.4
2018-07-31T06:16:10.692Z,25.4
2018-07-31T06:16:30.870Z,25.5
2018-07-31T06:16:51.047Z,25.4
2018-07-31T06:17:11.179Z,25.4
2018-07-31T06:17:31.330Z,25.5
2018-07-31T06:17:51.492Z,25.5
2018-07-31T06:18:11.654Z,25.5
2018-07-31T06:18:31.810Z,25.4
2018-07-31T06:18:51.969Z,25.5
2018-07-31T06:19:12.156Z,25.6
2018-07-31T06:19:32.334Z,25.5
2018-07-31T06:19:52.480Z,25.6
2018-07-31T06:20:12.650Z,25.6
2018-07-31T06:20:32.799Z,25.6
2018-07-31T06:20:52.960Z,25.7
2018-07-31T06:21:13.107Z,25.6
2018-07-31T06:21:33.283Z,25.7
2018-07-31T06:21:53.411Z,25.8
2018-07-31T06:22:13.552Z,25.7
2018-07-31T06:22:33.710Z,25.8
2018-07-31T06:22:53.860Z,25.8
2018-07-31T06:23:14.018Z,25.8
2018-07-31T06:23:34.216Z,25.8
2018-07-31T06:23:54.369Z,25.8
2018-07-31T06:24:14.503Z,25.9
2018-07-31T06:24:34.651Z,25.9
2018-07-31T06:24:54.817Z,25.9
2018-07-31T06:25:14.985Z,25.9
2018-07-31T06:25:35.166Z,25.8
2018-07-31T06:25:55.550Z,25.9
2018-07-31T06:26:15.720Z,26
2018-07-31T06:26:35.893Z,26
2018-07-31T06:26:56.074Z,26
2018-07-31T06:27:16.205Z,26.1
2018-07-31T06:27:36.357Z,26.1
2018-07-31T06:27:56.514Z,26
2018-07-31T06:28:16.706Z,26.1
2018-07-31T06:28:36.906Z,26.1
2018-07-31T06:28:57.071Z,26
2018-07-31T06:29:17.221Z,26.1
2018-07-31T06:29:37.353Z,26.1
2018-07-31T06:29:57.513Z,26.1
2018-07-31T06:30:17.670Z,26.1
2018-07-31T06:30:37.841Z,26.1
2018-07-31T06:30:57.967Z,26.1
2018-07-31T06:31:18.150Z,26.2
2018-07-31T06:31:38.345Z,26.1
2018-07-31T06:31:58.533Z,26.2
2018-07-31T06:32:18.691Z,26.2
2018-07-31T06:32:38.847Z,26.2
2018-07-31T06:32:59.101Z,26.3
2018-07-31T06:33:19.192Z,26.3
2018-07-31T06:33:39.398Z,26.3
2018-07-31T06:33:59.557Z,26.3
2018-07-31T06:34:19.755Z,26.3
2018-07-31T06:34:39.870Z,26.3
2018-07-31T06:35:00.047Z,26.4
2018-07-31T06:35:20.207Z,26.4
2018-07-31T06:35:40.327Z,26.4
2018-07-31T06:36:00.510Z,26.4
2018-07-31T06:36:20.679Z,26.4
2018-07-31T06:36:40.860Z,26.5
2018-07-31T06:37:01.033Z,26.5
2018-07-31T06:37:21.176Z,26.5
2018-07-31T06:37:41.355Z,26.5
2018-07-31T06:38:01.520Z,26.6
2018-07-31T06:38:21.665Z,26.6
2018-07-31T06:38:41.811Z,26.5
2018-07-31T06:39:02.002Z,26.5
2018-07-31T06:39:22.212Z,26.6
2018-07-31T06:39:42.366Z,26.6
2018-07-31T06:40:02.572Z,26.6
2018-07-31T06:40:22.744Z,26.5
2018-07-31T06:40:42.868Z,26.7
2018-07-31T06:41:03.023Z,26.7
2018-07-31T06:41:23.174Z,26.7
2018-07-31T06:41:43.329Z,26.7
2018-07-31T06:42:03.485Z,26.7
2018-07-31T06:42:23.610Z,26.7
2018-07-31T06:42:43.770Z,26.8
2018-07-31T06:43:03.938Z,26.8
2018-07-31T06:43:24.149Z,26.9
2018-07-31T06:43:44.253Z,26.8
2018-07-31T06:44:04.423Z,26.8
2018-07-31T06:44:24.542Z,26.8
2018-07-31T06:44:44.681Z,26.8
2018-07-31T06:45:04.815Z,27
2018-07-31T06:45:25.031Z,26.9
2018-07-31T06:45:45.201Z,26.9
2018-07-31T06:46:05.378Z,27
2018-07-31T06:46:25.549Z,27
2018-07-31T06:46:45.728Z,27
2018-07-31T06:47:05.882Z,27
2018-07-31T06:47:26.064Z,27
2018-07-31T06:47:46.205Z,26.9
2018-07-31T06:48:06.349Z,27
2018-07-31T06:48:26.491Z,27
2018-07-31T06:48:46.669Z,27.1
2018-07-31T06:49:06.828Z,27.1
2018-07-31T06:49:27.110Z,27.1
2018-07-31T06:49:47.258Z,27.1
2018-07-31T06:50:07.412Z,27
2018-07-31T06:50:27.565Z,27.1
2018-07-31T06:50:47.726Z,27.2
2018-07-31T06:51:07.927Z,27.1
2018-07-31T06:51:28.090Z,27.2
2018-07-31T06:51:48.255Z,27.2
2018-07-31T06:52:08.456Z,27.2
2018-07-31T06:52:28.603Z,27.2
2018-07-31T06:52:48.748Z,27.3
2018-07-31T06:53:08.890Z,27.2
2018-07-31T06:53:29.042Z,27.2
2018-07-31T06:53:49.183Z,27.3
2018-07-31T06:54:09.365Z,27.4
2018-07-31T06:54:29.543Z,27.3
2018-07-31T06:54:49.683Z,27.3
2018-07-31T06:55:09.888Z,27.3
2018-07-31T06:55:30.036Z,27.4
2018-07-31T06:55:50.193Z,27.4
2018-07-31T06:56:10.370Z,27.3
2018-07-31T06:56:30.517Z,27.3
2018-07-31T06:56:50.831Z,27.4
2018-07-31T06:57:10.925Z,27.4
2018-07-31T06:57:31.122Z,27.5
2018-07-31T06:57:51.294Z,27.5
2018-07-31T06:58:11.444Z,27.5
2018-07-31T06:58:31.636Z,27.5
2018-07-31T06:58:51.832Z,27.4
2018-07-31T06:59:11.981Z,27.5
2018-07-31T06:59:32.132Z,27.6
2018-07-31T06:59:52.303Z,27.6
2018-07-31T07:00:12.448Z,27.6
2018-07-31T07:00:32.621Z,27.5
2018-07-31T07:00:52.834Z,27.6
2018-07-31T07:01:12.968Z,27.6
2018-07-31T07:01:33.108Z,27.6
2018-07-31T07:01:53.256Z,27.7
2018-07-31T07:02:13.548Z,27.7
2018-07-31T07:02:33.619Z,27.8
2018-07-31T07:02:53.780Z,27.7
2018-07-31T07:03:13.975Z,27.8
2018-07-31T07:03:34.143Z,27.7
2018-07-31T07:03:54.325Z,27.8
2018-07-31T07:04:14.521Z,27.8
2018-07-31T07:04:34.704Z,27.8
2018-07-31T07:04:54.887Z,27.8
2018-07-31T07:05:15.001Z,27.9
2018-07-31T07:05:35.153Z,27.9
2018-07-31T07:05:55.338Z,27.9
2018-07-31T07:06:15.483Z,28
2018-07-31T07:06:35.644Z,28
2018-07-31T07:06:55.827Z,28
2018-07-31T07:07:15.997Z,28
2018-07-31T07:07:36.157Z,28
2018-07-31T07:07:56.337Z,28.1
2018-07-31T07:08:16.504Z,28
2018-07-31T07:08:36.654Z,28.1
2018-07-31T07:08:56.816Z,28
2018-07-31T07:09:17.046Z,28.1
2018-07-31T07:09:37.142Z,28.1
2018-07-31T07:09:57.277Z,28.1
2018-07-31T07:10:17.428Z,28.2
2018-07-31T07:10:37.601Z,28.2
2018-07-31T07:10:57.758Z,28.2
2018-07-31T07:11:17.906Z,28.2
2018-07-31T07:11:38.056Z,28.2
2018-07-31T07:11:58.213Z,28.3
2018-07-31T07:12:18.384Z,28.2
2018-07-31T07:12:38.535Z,28.3
2018-07-31T07:12:58.697Z,28.3
2018-07-31T07:13:18.844Z,28.3
2018-07-31T07:13:38.972Z,28.4
2018-07-31T07:13:59.144Z,28.3
2018-07-31T07:14:19.337Z,28.4
2018-07-31T07:14:39.513Z,28.3
2018-07-31T07:14:59.681Z,28.3
2018-07-31T07:15:19.829Z,28.3
2018-07-31T07:15:40.151Z,28.3
2018-07-31T07:16:00.333Z,28.4
2018-07-31T07:16:20.498Z,28.4
2018-07-31T07:16:40.659Z,28.4
2018-07-31T07:17:00.827Z,28.4
2018-07-31T07:17:20.997Z,28.5
2018-07-31T07:17:41.160Z,28.5
2018-07-31T07:18:01.401Z,28.5
2018-07-31T07:18:21.617Z,28.5
2018-07-31T07:18:41.815Z,28.5
2018-07-31T07:19:01.982Z,28.4
2018-07-31T07:19:22.353Z,28.6
2018-07-31T07:19:42.505Z,28.5
2018-07-31T07:20:02.679Z,28.7
2018-07-31T07:20:22.840Z,28.6
2018-07-31T07:20:43.181Z,28.6
2018-07-31T07:21:03.364Z,28.6
2018-07-31T07:21:23.492Z,28.6
2018-07-31T07:21:43.642Z,28.7
2018-07-31T07:22:03.769Z,28.7
2018-07-31T07:22:23.881Z,28.6
2018-07-31T07:22:44.094Z,28.7
2018-07-31T07:23:04.190Z,28.8
2018-07-31T07:23:24.338Z,28.7
2018-07-31T07:23:44.469Z,28.9
2018-07-31T07:24:04.640Z,28.8
2018-07-31T07:24:24.824Z,28.8
2018-07-31T07:24:44.998Z,28.8
2018-07-31T07:25:05.138Z,28.9
2018-07-31T07:25:25.292Z,28.8
2018-07-31T07:25:45.445Z,28.8
2018-07-31T07:26:05.635Z,28.8
2018-07-31T07:26:25.802Z,28.9
2018-07-31T07:26:45.966Z,28.9
2018-07-31T07:27:06.088Z,28.9
2018-07-31T07:27:26.330Z,28.9
2018-07-31T07:27:46.500Z,28.9
2018-07-31T07:28:06.787Z,29
2018-07-31T07:28:26.926Z,29
2018-07-31T07:28:47.091Z,29
2018-07-31T07:29:07.234Z,29
2018-07-31T07:29:27.406Z,29.1
2018-07-31T07:29:47.582Z,29.1
2018-07-31T07:30:07.756Z,29.2
2018-07-31T07:30:27.898Z,29.1
2018-07-31T07:30:48.040Z,29.2
2018-07-31T07:31:08.170Z,29.2
2018-07-31T07:31:28.319Z,29.2
2018-07-31T07:31:48.468Z,29.2
2018-07-31T07:32:08.624Z,29.2
2018-07-31T07:32:28.822Z,29.3
2018-07-31T07:32:48.970Z,29.3
2018-07-31T07:33:09.153Z,29.3
2018-07-31T07:33:29.309Z,29.3
2018-07-31T07:33:49.656Z,29.4
2018-07-31T07:34:10.110Z,29.4
2018-07-31T07:34:30.275Z,29.5
2018-07-31T07:34:50.431Z,29.5
2018-07-31T07:35:10.586Z,29.5
2018-07-31T07:35:30.740Z,29.5
2018-07-31T07:35:50.956Z,29.6
2018-07-31T07:36:11.106Z,29.5
2018-07-31T07:36:31.302Z,29.5
2018-07-31T07:36:51.452Z,29.5
2018-07-31T07:37:11.605Z,29.5
2018-07-31T07:37:31.777Z,29.5
2018-07-31T07:37:51.949Z,29.5
2018-07-31T07:38:12.140Z,29.6
2018-07-31T07:38:32.305Z,29.6
2018-07-31T07:38:52.471Z,29.6
2018-07-31T07:39:12.626Z,29.6
2018-07-31T07:39:32.797Z,29.7
2018-07-31T07:39:52.963Z,29.7
2018-07-31T07:40:13.184Z,29.6
2018-07-31T07:40:33.307Z,29.7
2018-07-31T07:40:53.439Z,29.7
2018-07-31T07:41:13.652Z,29.7
2018-07-31T07:41:33.795Z,29.7
2018-07-31T07:41:53.946Z,29.8
2018-07-31T07:42:14.122Z,29.8
2018-07-31T07:42:34.272Z,29.8
2018-07-31T07:42:54.419Z,29.8
2018-07-31T07:43:14.588Z,29.9
2018-07-31T07:43:34.708Z,29.9
2018-07-31T07:43:54.889Z,29.8
2018-07-31T07:44:15.009Z,29.9
2018-07-31T07:44:35.178Z,29.9
2018-07-31T07:44:55.319Z,29.8
2018-07-31T07:45:15.487Z,29.9
2018-07-31T07:45:35.647Z,30
2018-07-31T07:45:55.783Z,29.8
2018-07-31T07:46:15.919Z,29.9
2018-07-31T07:46:36.075Z,29.9
2018-07-31T07:46:56.243Z,29.9
2018-07-31T07:47:16.395Z,29.9
2018-07-31T07:47:36.534Z,30
2018-07-31T07:47:56.671Z,30
2018-07-31T07:48:16.844Z,30.1
2018-07-31T07:48:36.975Z,30.1
2018-07-31T07:48:57.128Z,30
2018-07-31T07:49:17.295Z,30
2018-07-31T07:49:37.523Z,30.2
2018-07-31T07:49:57.616Z,30.2
2018-07-31T07:50:17.776Z,30.1
2018-07-31T07:50:37.971Z,30.2
2018-07-31T07:50:58.143Z,30.2
2018-07-31T07:51:18.320Z,30.2
2018-07-31T07:51:38.527Z,30.3
2018-07-31T07:51:58.684Z,30.2
2018-07-31T07:52:18.852Z,30.2
2018-07-31T07:52:39.068Z,30.3
2018-07-31T07:52:59.212Z,30.3
2018-07-31T07:53:19.358Z,30.3
2018-07-31T07:53:39.515Z,30.3
2018-07-31T07:53:59.712Z,30.4
2018-07-31T07:54:19.942Z,30.4
2018-07-31T07:54:40.139Z,30.4
2018-07-31T07:55:00.311Z,30.4
2018-07-31T07:55:20.512Z,30.5
2018-07-31T07:55:40.670Z,30.5
2018-07-31T07:56:00.836Z,30.6
2018-07-31T07:56:20.984Z,30.4
2018-07-31T07:56:41.125Z,30.6
2018-07-31T07:57:01.307Z,30.5
2018-07-31T07:57:21.470Z,30.6
2018-07-31T07:57:41.620Z,30.6
2018-07-31T07:58:01.779Z,30.6
2018-07-31T07:58:21.922Z,30.7
2018-07-31T07:58:42.161Z,30.7
2018-07-31T07:59:02.325Z,30.6
2018-07-31T07:59:22.520Z,30.7
2018-07-31T07:59:42.667Z,30.7
2018-07-31T08:00:02.819Z,30.7
2018-07-31T08:00:22.984Z,30.7
2018-07-31T08:00:43.165Z,30.8
2018-07-31T08:01:03.315Z,30.8
2018-07-31T08:01:23.496Z,30.8
2018-07-31T08:01:43.666Z,30.8
2018-07-31T08:02:03.817Z,30.8
2018-07-31T08:02:23.976Z,30.8
2018-07-31T08:02:44.132Z,30.8
2018-07-31T08:03:04.301Z,30.8
2018-07-31T08:03:24.496Z,30.8
2018-07-31T08:03:44.685Z,30.9
2018-07-31T08:04:04.841Z,30.8
2018-07-31T08:04:24.985Z,31
2018-07-31T08:04:45.116Z,31
2018-07-31T08:05:05.278Z,30.9
2018-07-31T08:05:25.408Z,31
2018-07-31T08:05:45.587Z,31.1
2018-07-31T08:06:05.753Z,31.1
2018-07-31T08:06:25.890Z,31
2018-07-31T08:06:46.080Z,31
2018-07-31T08:07:06.237Z,31.1
2018-07-31T08:07:26.433Z,31.1
2018-07-31T08:07:46.620Z,31.1
2018-07-31T08:08:06.780Z,31.1
2018-07-31T08:08:26.988Z,31
2018-07-31T08:08:47.140Z,31.1
2018-07-31T08:09:07.342Z,31.1
2018-07-31T08:09:27.492Z,31.1
2018-07-31T08:09:47.716Z,31.3
2018-07-31T08:10:07.823Z,31.3
2018-07-31T08:10:27.964Z,31.3
2018-07-31T08:10:48.150Z,31.3
2018-07-31T08:11:08.320Z,31.3
2018-07-31T08:11:28.509Z,31.3
2018-07-31T08:11:48.671Z,31.3
2018-07-31T08:12:08.807Z,31.3
2018-07-31T08:12:29.043Z,31.4
2018-07-31T08:12:49.189Z,31.5
2018-07-31T08:13:09.422Z,31.4
2018-07-31T08:13:29.598Z,31.4
2018-07-31T08:13:49.785Z,31.4
2018-07-31T08:14:09.949Z,31.4
2018-07-31T08:14:30.175Z,31.5
2018-07-31T08:14:50.302Z,31.5
2018-07-31T08:15:10.614Z,31.5
2018-07-31T08:15:30.839Z,31.4
2018-07-31T08:15:50.974Z,31.5
2018-07-31T08:16:11.161Z,31.5
2018-07-31T08:16:31.340Z,31.6
2018-07-31T08:16:51.501Z,31.7
2018-07-31T08:17:11.664Z,31.6
2018-07-31T08:17:31.843Z,31.7
2018-07-31T08:17:52.003Z,31.7
2018-07-31T08:18:12.184Z,31.7
2018-07-31T08:18:32.335Z,31.7
2018-07-31T08:18:52.493Z,31.8
2018-07-31T08:19:12.652Z,31.7
2018-07-31T08:19:32.820Z,31.8
2018-07-31T08:19:52.966Z,31.8
2018-07-31T08:20:13.138Z,31.7
2018-07-31T08:20:33.285Z,31.8
2018-07-31T08:20:53.469Z,31.8
2018-07-31T08:21:13.647Z,31.8
2018-07-31T08:21:33.808Z,31.7
2018-07-31T08:21:54.016Z,31.8
2018-07-31T08:22:14.194Z,31.8
2018-07-31T08:22:34.452Z,31.8
2018-07-31T08:22:54.622Z,31.8
2018-07-31T08:23:14.805Z,31.8
2018-07-31T08:23:34.989Z,31.8
2018-07-31T08:23:55.124Z,31.7
2018-07-31T08:24:15.282Z,31.8
2018-07-31T08:24:35.433Z,31.9
2018-07-31T08:24:55.620Z,31.8
2018-07-31T08:25:15.808Z,31.8
2018-07-31T08:25:35.961Z,31.8
2018-07-31T08:25:56.125Z,31.9
2018-07-31T08:26:16.364Z,32
2018-07-31T08:26:36.537Z,31.9
2018-07-31T08:26:56.705Z,31.9
2018-07-31T08:27:16.924Z,31.9
2018-07-31T08:27:37.103Z,31.9
2018-07-31T08:27:57.446Z,32
2018-07-31T08:28:17.595Z,32
2018-07-31T08:28:37.770Z,32
2018-07-31T08:28:57.928Z,32
2018-07-31T08:29:18.059Z,32.1
2018-07-31T08:29:38.236Z,32.1
2018-07-31T08:29:58.373Z,32.1
2018-07-31T08:30:18.545Z,32.1
2018-07-31T08:30:38.696Z,32
2018-07-31T08:30:58.849Z,32.1
2018-07-31T08:31:19.065Z,32.2
2018-07-31T08:31:39.260Z,32.2
2018-07-31T08:31:59.406Z,32.2
2018-07-31T08:32:19.553Z,32.2
2018-07-31T08:32:39.748Z,32.2
2018-07-31T08:32:59.898Z,32.1
2018-07-31T08:33:20.112Z,32.2
2018-07-31T08:33:40.331Z,32.2
2018-07-31T08:34:00.455Z,32.3
2018-07-31T08:34:20.642Z,32.2
2018-07-31T08:34:40.891Z,32.2
2018-07-31T08:35:01.071Z,32.2
2018-07-31T08:35:21.235Z,32.2
2018-07-31T08:35:41.395Z,32.3
2018-07-31T08:36:01.556Z,32.3
2018-07-31T08:36:21.715Z,32.3
2018-07-31T08:36:41.895Z,32.3
2018-07-31T08:37:02.072Z,32.4
2018-07-31T08:37:22.243Z,32.3
2018-07-31T08:37:42.410Z,32.3
2018-07-31T08:38:02.583Z,32.4
2018-07-31T08:38:22.751Z,32.5
2018-07-31T08:38:42.917Z,32.5
2018-07-31T08:39:03.106Z,32.4
2018-07-31T08:39:23.265Z,32.6
2018-07-31T08:39:43.430Z,32.4
2018-07-31T08:40:03.580Z,32.5
2018-07-31T08:40:23.750Z,32.6
2018-07-31T08:40:43.911Z,32.6
2018-07-31T08:41:04.048Z,32.5
2018-07-31T08:41:24.199Z,32.7
2018-07-31T08:41:44.412Z,32.7
2018-07-31T08:42:04.559Z,32.7
2018-07-31T08:42:24.725Z,32.7
2018-07-31T08:42:44.864Z,32.8
2018-07-31T08:43:05.048Z,32.7
2018-07-31T08:43:25.206Z,32.8
2018-07-31T08:43:45.375Z,32.7
2018-07-31T08:44:05.585Z,32.8
2018-07-31T08:44:25.771Z,32.8
2018-07-31T08:44:45.940Z,32.8
2018-07-31T08:45:06.126Z,32.8
2018-07-31T08:45:26.278Z,32.9
2018-07-31T08:45:46.491Z,32.8
2018-07-31T08:46:06.660Z,32.9
2018-07-31T08:46:26.844Z,32.9
2018-07-31T08:46:47.015Z,32.9
2018-07-31T08:47:07.164Z,32.9
2018-07-31T08:47:27.350Z,32.9
2018-07-31T08:47:47.491Z,32.9
2018-07-31T08:48:07.685Z,32.9
2018-07-31T08:48:27.921Z,32.8
2018-07-31T08:48:48.085Z,32.8
2018-07-31T08:49:08.246Z,32.9
2018-07-31T08:49:28.393Z,32.9
2018-07-31T08:49:48.553Z,33
2018-07-31T08:50:08.752Z,33
2018-07-31T08:50:28.954Z,33
2018-07-31T08:50:49.136Z,32.9
2018-07-31T08:51:09.336Z,33
2018-07-31T08:51:29.619Z,33.1
2018-07-31T08:51:49.797Z,33
2018-07-31T08:52:09.957Z,33
2018-07-31T08:52:30.187Z,33
2018-07-31T08:52:50.363Z,33
2018-07-31T08:53:10.593Z,33
2018-07-31T08:53:30.807Z,33.1
2018-07-31T08:53:50.984Z,33
2018-07-31T08:54:11.144Z,33
2018-07-31T08:54:31.300Z,33.1
2018-07-31T08:54:51.475Z,33.1
2018-07-31T08:55:11.631Z,33.1
2018-07-31T08:55:31.801Z,33.1
2018-07-31T08:55:52.119Z,33.1
2018-07-31T08:56:12.167Z,33.2
2018-07-31T08:56:32.317Z,33.1
2018-07-31T08:56:52.488Z,33.1
2018-07-31T08:57:12.665Z,33.2
2018-07-31T08:57:32.809Z,33.2
2018-07-31T08:57:52.978Z,33.2
2018-07-31T08:58:13.112Z,33.2
2018-07-31T08:58:33.279Z,33.3
2018-07-31T08:58:53.445Z,33.2
2018-07-31T08:59:13.637Z,33.2
2018-07-31T08:59:33.788Z,33.2
2018-07-31T08:59:53.943Z,33.3
2018-07-31T09:00:14.092Z,33.3
2018-07-31T09:00:34.274Z,33.3
2018-07-31T09:00:54.444Z,33.3
2018-07-31T09:01:14.579Z,33.3
2018-07-31T09:01:34.740Z,33.4
2018-07-31T09:01:54.921Z,33.4
2018-07-31T09:02:15.105Z,33.4
2018-07-31T09:02:35.275Z,33.4
2018-07-31T09:02:55.521Z,33.4
2018-07-31T09:03:15.685Z,33.4
2018-07-31T09:03:35.862Z,33.4
2018-07-31T09:03:56.058Z,33.5
2018-07-31T09:04:16.265Z,33.4
2018-07-31T09:04:36.446Z,33.6
2018-07-31T09:04:56.603Z,33.5
2018-07-31T09:05:16.736Z,33.6
2018-07-31T09:05:36.924Z,33.5
2018-07-31T09:05:57.085Z,33.6
2018-07-31T09:06:17.260Z,33.6
2018-07-31T09:06:37.436Z,33.6
2018-07-31T09:06:57.585Z,33.6
2018-07-31T09:07:17.789Z,33.6
2018-07-31T09:07:37.958Z,33.6
2018-07-31T09:07:58.117Z,33.6
2018-07-31T09:08:18.391Z,33.6
2018-07-31T09:08:38.549Z,33.6
2018-07-31T09:08:59.109Z,33.6
2018-07-31T09:09:19.225Z,33.6
2018-07-31T09:09:39.397Z,33.6
2018-07-31T09:09:59.541Z,33.6
2018-07-31T09:10:19.752Z,33.6
2018-07-31T09:10:39.918Z,33.5
2018-07-31T09:11:00.126Z,33.7
2018-07-31T09:11:20.280Z,33.7
2018-07-31T09:11:40.466Z,33.6
2018-07-31T09:12:00.635Z,33.6
2018-07-31T09:12:20.776Z,33.5
2018-07-31T09:12:40.928Z,33.7
2018-07-31T09:13:01.115Z,33.6
2018-07-31T09:13:21.270Z,33.8
2018-07-31T09:13:41.451Z,33.7
2018-07-31T09:14:01.627Z,33.8
2018-07-31T09:14:21.773Z,33.7
2018-07-31T09:14:41.943Z,33.7
2018-07-31T09:15:02.098Z,33.7
2018-07-31T09:15:22.259Z,33.8
2018-07-31T09:15:42.412Z,33.8
2018-07-31T09:16:02.592Z,33.8
2018-07-31T09:16:22.744Z,33.7
2018-07-31T09:16:42.911Z,33.7
2018-07-31T09:17:03.067Z,33.7
2018-07-31T09:17:23.245Z,33.8
2018-07-31T09:17:43.448Z,33.8
2018-07-31T09:18:03.585Z,33.8
2018-07-31T09:18:23.752Z,33.8
2018-07-31T09:18:43.926Z,33.8
2018-07-31T09:19:04.066Z,33.7
2018-07-31T09:19:24.225Z,33.9
2018-07-31T09:19:44.401Z,33.9
2018-07-31T09:20:04.548Z,33.9
2018-07-31T09:20:24.714Z,33.8
2018-07-31T09:20:44.863Z,33.8
2018-07-31T09:21:05.024Z,33.8
2018-07-31T09:21:25.199Z,33.9
2018-07-31T09:21:45.379Z,33.8
2018-07-31T09:22:05.548Z,33.8
2018-07-31T09:22:25.721Z,33.8
2018-07-31T09:22:45.866Z,33.8
2018-07-31T09:23:06.027Z,33.9
2018-07-31T09:23:26.180Z,33.9
2018-07-31T09:23:46.327Z,33.9
2018-07-31T09:24:06.459Z,33.9
2018-07-31T09:24:26.727Z,33.9
2018-07-31T09:24:46.990Z,34
2018-07-31T09:25:07.131Z,33.9
2018-07-31T09:25:27.271Z,33.8
2018-07-31T09:25:47.425Z,33.9
2018-07-31T09:26:07.583Z,33.9
2018-07-31T09:26:27.769Z,33.9
2018-07-31T09:26:47.941Z,33.9
2018-07-31T09:27:08.115Z,34
2018-07-31T09:27:28.263Z,34
2018-07-31T09:27:48.426Z,34
2018-07-31T09:28:08.592Z,34
2018-07-31T09:28:28.747Z,33.9
2018-07-31T09:28:48.909Z,33.9
2018-07-31T09:29:09.056Z,33.9
2018-07-31T09:29:29.248Z,33.9
2018-07-31T09:29:49.390Z,33.9
2018-07-31T09:30:09.549Z,33.9
2018-07-31T09:30:29.825Z,33.9
2018-07-31T09:30:50.003Z,33.9
2018-07-31T09:31:10.168Z,33.9
2018-07-31T09:31:30.245Z,33.9
2018-07-31T09:31:50.396Z,34
2018-07-31T09:32:10.581Z,34
2018-07-31T09:32:30.728Z,34
2018-07-31T09:32:50.873Z,34
2018-07-31T09:33:11.053Z,34.1
2018-07-31T09:33:31.216Z,34.1
2018-07-31T09:33:51.372Z,34.1
2018-07-31T09:34:11.542Z,34
2018-07-31T09:34:31.695Z,34.1
2018-07-31T09:34:51.867Z,34
2018-07-31T09:35:12.037Z,34.1
2018-07-31T09:35:32.305Z,34
2018-07-31T09:35:52.501Z,34.1
2018-07-31T09:36:12.671Z,34.1
2018-07-31T09:36:32.870Z,34.1
2018-07-31T09:36:52.982Z,34.1
2018-07-31T09:37:13.157Z,34.1
2018-07-31T09:37:33.284Z,34.1
2018-07-31T09:37:53.443Z,34.1
2018-07-31T09:38:13.605Z,34.1
2018-07-31T09:38:33.772Z,34.1
2018-07-31T09:38:53.924Z,34
2018-07-31T09:39:14.076Z,34.1
2018-07-31T09:39:34.249Z,34.1
2018-07-31T09:39:54.409Z,34.1
2018-07-31T09:40:14.543Z,34.2
2018-07-31T09:40:34.668Z,34.1
2018-07-31T09:40:54.833Z,34.1
2018-07-31T09:41:14.997Z,34.1
2018-07-31T09:41:35.129Z,34.2
2018-07-31T09:41:55.289Z,34.1
2018-07-31T09:42:15.474Z,34.1
2018-07-31T09:42:35.636Z,34.1
2018-07-31T09:42:55.774Z,34.1
2018-07-31T09:43:15.930Z,34.1
2018-07-31T09:43:36.113Z,34.1
2018-07-31T09:43:56.286Z,34.1
2018-07-31T09:44:16.463Z,34.1
2018-07-31T09:44:36.621Z,34.2
2018-07-31T09:44:56.758Z,34.2
2018-07-31T09:45:16.916Z,34.2
2018-07-31T09:45:37.072Z,34.2
2018-07-31T09:45:57.246Z,34.1
2018-07-31T09:46:17.406Z,34.2
2018-07-31T09:46:37.544Z,34.2
2018-07-31T09:46:57.719Z,34.2
2018-07-31T09:47:17.893Z,34.1
2018-07-31T09:47:38.062Z,34.1
2018-07-31T09:47:58.241Z,34.1
2018-07-31T09:48:18.401Z,34.1
2018-07-31T09:48:38.582Z,34.2
2018-07-31T09:48:58.733Z,34.1
2018-07-31T09:49:18.901Z,34.2
2018-07-31T09:49:39.064Z,34.1
2018-07-31T09:49:59.230Z,34.1
2018-07-31T09:50:19.379Z,34.2
2018-07-31T09:50:39.589Z,34.1
2018-07-31T09:50:59.832Z,34.1
2018-07-31T09:51:20.002Z,34.1
2018-07-31T09:51:40.205Z,34
2018-07-31T09:52:00.344Z,34
2018-07-31T09:52:20.519Z,34
2018-07-31T09:52:40.673Z,34.1
2018-07-31T09:53:00.786Z,34
2018-07-31T09:53:20.936Z,34.1
2018-07-31T09:53:41.118Z,34
2018-07-31T09:54:01.281Z,34.1
2018-07-31T09:54:21.458Z,34
2018-07-31T09:54:41.660Z,34
2018-07-31T09:55:01.882Z,34
2018-07-31T09:55:22.047Z,34.1
2018-07-31T09:55:42.236Z,34.1
2018-07-31T09:56:02.389Z,34.1
2018-07-31T09:56:22.559Z,34
2018-07-31T09:56:42.713Z,34
2018-07-31T09:57:02.933Z,34.1
2018-07-31T09:57:23.084Z,34.1
2018-07-31T09:57:43.231Z,34.2
2018-07-31T09:58:03.385Z,34.2
2018-07-31T09:58:23.571Z,34.2
2018-07-31T09:58:43.748Z,34.2
2018-07-31T09:59:03.956Z,34.3
2018-07-31T09:59:24.259Z,34.2
2018-07-31T09:59:44.443Z,34.3
2018-07-31T10:00:04.572Z,34.2
2018-07-31T10:00:24.717Z,34.3
2018-07-31T10:00:44.860Z,34.3
2018-07-31T10:01:05.017Z,34.3
2018-07-31T10:01:25.158Z,34.3
2018-07-31T10:01:45.293Z,34.3
2018-07-31T10:02:05.457Z,34.3
2018-07-31T10:02:25.624Z,34.3
2018-07-31T10:02:45.844Z,34.3
2018-07-31T10:03:06.061Z,34.3
2018-07-31T10:03:26.230Z,34.3
2018-07-31T10:03:46.382Z,34.3
2018-07-31T10:04:06.528Z,34.4
2018-07-31T10:04:26.696Z,34.4
2018-07-31T10:04:46.864Z,34.4
2018-07-31T10:05:07.117Z,34.4
2018-07-31T10:05:27.281Z,34.4
2018-07-31T10:05:47.421Z,34.4
2018-07-31T10:06:07.590Z,34.4
2018-07-31T10:06:27.774Z,34.4
2018-07-31T10:06:47.951Z,34.4
2018-07-31T10:07:08.134Z,34.4
2018-07-31T10:07:28.294Z,34.4
2018-07-31T10:07:48.546Z,34.5
2018-07-31T10:08:08.720Z,34.5
2018-07-31T10:08:28.891Z,34.4
2018-07-31T10:08:49.041Z,34.4
2018-07-31T10:09:09.192Z,34.5
2018-07-31T10:09:29.354Z,34.4
2018-07-31T10:09:49.535Z,34.4
2018-07-31T10:10:09.680Z,34.5
2018-07-31T10:10:29.858Z,34.5
2018-07-31T10:10:50.043Z,34.5
2018-07-31T10:11:10.203Z,34.5
2018-07-31T10:11:30.385Z,34.5
2018-07-31T10:11:50.621Z,34.6
2018-07-31T10:12:10.958Z,34.5
2018-07-31T10:12:31.059Z,34.5
2018-07-31T10:12:51.254Z,34.6
2018-07-31T10:13:11.467Z,34.6
2018-07-31T10:13:31.633Z,34.6
2018-07-31T10:13:51.801Z,34.6
2018-07-31T10:14:11.964Z,34.7
2018-07-31T10:14:32.112Z,34.6
2018-07-31T10:14:52.286Z,34.7
2018-07-31T10:15:12.500Z,34.6
2018-07-31T10:15:32.692Z,34.6
2018-07-31T10:15:52.857Z,34.7
2018-07-31T10:16:13.037Z,34.7
2018-07-31T10:16:33.200Z,34.7
2018-07-31T10:16:53.411Z,34.7
2018-07-31T10:17:13.585Z,34.7